sensor_id;sensor_type;location;lat;lon;timestamp;P1;durP1;ratioP1;P2;durP2;ratioP2
43086;SDS011;28708;52.224;6.924;2022-10-26T00:02:23;16.77;;;11.73;;
43086;SDS011;28708;52.224;6.924;2022-10-26T00:04:49;19.03;;;12.23;;
43086;SDS011;28708;52.224;6.924;2022-10-26T00:07:14;18.90;;;12.37;;
43086;SDS011;28708;52.224;6.924;2022-10-26T00:09:40;18.83;;;12.50;;
43086;SDS011;28708;52.224;6.924;2022-10-26T00:12:05;20.60;;;12.30;;
43086;SDS011;28708;52.224;6.924;2022-10-26T00:14:31;21.27;;;14.13;;
43086;SDS011;28708;52.224;6.924;2022-10-26T00:16:57;20.03;;;12.60;;
43086;SDS011;28708;52.224;6.924;2022-10-26T00:19:23;18.83;;;10.90;;
43086;SDS011;28708;52.224;6.924;2022-10-26T00:21:48;17.83;;;11.40;;
43086;SDS011;28708;52.224;6.924;2022-10-26T00:24:14;16.73;;;11.57;;
43086;SDS011;28708;52.224;6.924;2022-10-26T00:26:40;19.20;;;12.43;;
43086;SDS011;28708;52.224;6.924;2022-10-26T00:29:06;17.73;;;11.53;;
43086;SDS011;28708;52.224;6.924;2022-10-26T00:31:32;17.43;;;10.73;;
43086;SDS011;28708;52.224;6.924;2022-10-26T00:33:58;22.83;;;12.53;;
43086;SDS011;28708;52.224;6.924;2022-10-26T00:36:24;13.87;;;10.23;;
43086;SDS011;28708;52.224;6.924;2022-10-26T00:38:51;15.23;;;10.77;;
43086;SDS011;28708;52.224;6.924;2022-10-26T00:41:25;18.17;;;11.10;;
43086;SDS011;28708;52.224;6.924;2022-10-26T00:43:55;17.47;;;11.13;;
43086;SDS011;28708;52.224;6.924;2022-10-26T00:46:34;20.17;;;12.33;;
43086;SDS011;28708;52.224;6.924;2022-10-26T00:49:07;21.67;;;11.53;;
43086;SDS011;28708;52.224;6.924;2022-10-26T00:51:38;19.77;;;13.00;;
43086;SDS011;28708;52.224;6.924;2022-10-26T00:54:09;20.98;;;13.80;;
43086;SDS011;28708;52.224;6.924;2022-10-26T00:56:39;23.33;;;12.50;;
43086;SDS011;28708;52.224;6.924;2022-10-26T00:59:07;23.47;;;12.70;;
43086;SDS011;28708;52.224;6.924;2022-10-26T01:01:35;18.33;;;12.77;;
43086;SDS011;28708;52.224;6.924;2022-10-26T01:04:03;22.43;;;13.03;;
43086;SDS011;28708;52.224;6.924;2022-10-26T01:06:29;18.60;;;13.37;;
43086;SDS011;28708;52.224;6.924;2022-10-26T01:08:56;20.90;;;13.57;;
43086;SDS011;28708;52.224;6.924;2022-10-26T01:11:22;21.33;;;12.93;;
43086;SDS011;28708;52.224;6.924;2022-10-26T01:13:47;18.73;;;12.50;;
43086;SDS011;28708;52.224;6.924;2022-10-26T01:19:12;17.53;;;12.70;;
43086;SDS011;28708;52.224;6.924;2022-10-26T01:41:03;24.27;;;12.87;;
43086;SDS011;28708;52.224;6.924;2022-10-26T01:43:39;15.57;;;11.10;;
43086;SDS011;28708;52.224;6.924;2022-10-26T01:46:09;17.70;;;11.97;;
43086;SDS011;28708;52.224;6.924;2022-10-26T01:48:35;17.37;;;11.97;;
43086;SDS011;28708;52.224;6.924;2022-10-26T01:51:03;18.37;;;11.60;;
43086;SDS011;28708;52.224;6.924;2022-10-26T01:53:31;19.90;;;11.07;;
43086;SDS011;28708;52.224;6.924;2022-10-26T01:55:57;14.33;;;11.83;;
43086;SDS011;28708;52.224;6.924;2022-10-26T01:58:38;17.70;;;11.77;;
43086;SDS011;28708;52.224;6.924;2022-10-26T02:01:17;22.47;;;12.20;;
43086;SDS011;28708;52.224;6.924;2022-10-26T02:07:03;15.75;;;10.75;;
43086;SDS011;28708;52.224;6.924;2022-10-26T02:14:56;22.27;;;12.90;;
43086;SDS011;28708;52.224;6.924;2022-10-26T02:17:33;26.60;;;12.47;;
43086;SDS011;28708;52.224;6.924;2022-10-26T02:20:13;19.95;;;13.25;;
43086;SDS011;28708;52.224;6.924;2022-10-26T02:22:48;19.87;;;13.30;;
43086;SDS011;28708;52.224;6.924;2022-10-26T02:25:22;19.17;;;12.67;;
43086;SDS011;28708;52.224;6.924;2022-10-26T02:27:52;17.27;;;12.80;;
43086;SDS011;28708;52.224;6.924;2022-10-26T02:30:22;21.93;;;13.57;;
43086;SDS011;28708;52.224;6.924;2022-10-26T02:32:49;18.63;;;12.97;;
43086;SDS011;28708;52.224;6.924;2022-10-26T02:35:18;20.15;;;12.25;;
43086;SDS011;28708;52.224;6.924;2022-10-26T02:37:49;19.57;;;12.93;;
43086;SDS011;28708;52.224;6.924;2022-10-26T02:40:17;21.73;;;13.90;;
43086;SDS011;28708;52.224;6.924;2022-10-26T02:42:48;19.20;;;13.27;;
43086;SDS011;28708;52.224;6.924;2022-10-26T02:45:16;18.67;;;12.10;;
43086;SDS011;28708;52.224;6.924;2022-10-26T02:47:46;17.90;;;12.50;;
43086;SDS011;28708;52.224;6.924;2022-10-26T02:50:12;19.30;;;11.23;;
43086;SDS011;28708;52.224;6.924;2022-10-26T02:52:50;18.90;;;13.13;;
43086;SDS011;28708;52.224;6.924;2022-10-26T02:55:26;17.33;;;11.73;;
43086;SDS011;28708;52.224;6.924;2022-10-26T02:58:01;21.27;;;13.03;;
43086;SDS011;28708;52.224;6.924;2022-10-26T03:00:30;18.83;;;12.63;;
43086;SDS011;28708;52.224;6.924;2022-10-26T03:02:57;17.60;;;11.77;;
43086;SDS011;28708;52.224;6.924;2022-10-26T03:05:24;19.77;;;12.77;;
43086;SDS011;28708;52.224;6.924;2022-10-26T03:07:51;19.73;;;11.10;;
43086;SDS011;28708;52.224;6.924;2022-10-26T03:10:18;15.67;;;10.87;;
43086;SDS011;28708;52.224;6.924;2022-10-26T03:12:44;19.80;;;13.03;;
43086;SDS011;28708;52.224;6.924;2022-10-26T03:15:10;26.83;;;13.17;;
43086;SDS011;28708;52.224;6.924;2022-10-26T03:17:36;17.43;;;11.50;;
43086;SDS011;28708;52.224;6.924;2022-10-26T03:20:01;19.53;;;12.33;;
43086;SDS011;28708;52.224;6.924;2022-10-26T03:22:28;21.10;;;12.60;;
43086;SDS011;28708;52.224;6.924;2022-10-26T03:24:53;17.80;;;11.30;;
43086;SDS011;28708;52.224;6.924;2022-10-26T03:27:19;18.90;;;13.00;;
43086;SDS011;28708;52.224;6.924;2022-10-26T03:29:45;16.70;;;12.70;;
43086;SDS011;28708;52.224;6.924;2022-10-26T03:32:10;18.93;;;12.87;;
43086;SDS011;28708;52.224;6.924;2022-10-26T03:34:36;15.67;;;11.20;;
43086;SDS011;28708;52.224;6.924;2022-10-26T03:37:01;17.67;;;12.80;;
43086;SDS011;28708;52.224;6.924;2022-10-26T03:39:27;20.40;;;13.27;;
43086;SDS011;28708;52.224;6.924;2022-10-26T03:41:53;16.83;;;11.90;;
43086;SDS011;28708;52.224;6.924;2022-10-26T03:44:20;15.37;;;10.57;;
43086;SDS011;28708;52.224;6.924;2022-10-26T03:46:45;15.93;;;11.37;;
43086;SDS011;28708;52.224;6.924;2022-10-26T03:49:11;20.13;;;12.90;;
43086;SDS011;28708;52.224;6.924;2022-10-26T03:51:37;17.40;;;13.27;;
43086;SDS011;28708;52.224;6.924;2022-10-26T03:54:03;18.90;;;13.43;;
43086;SDS011;28708;52.224;6.924;2022-10-26T03:56:28;23.33;;;14.40;;
43086;SDS011;28708;52.224;6.924;2022-10-26T03:58:54;26.93;;;12.83;;
43086;SDS011;28708;52.224;6.924;2022-10-26T04:01:20;23.40;;;13.37;;
43086;SDS011;28708;52.224;6.924;2022-10-26T04:03:45;20.73;;;12.83;;
43086;SDS011;28708;52.224;6.924;2022-10-26T04:06:11;20.03;;;12.20;;
43086;SDS011;28708;52.224;6.924;2022-10-26T04:08:37;15.83;;;12.10;;
43086;SDS011;28708;52.224;6.924;2022-10-26T04:11:02;19.17;;;11.17;;
43086;SDS011;28708;52.224;6.924;2022-10-26T04:13:28;19.50;;;12.83;;
43086;SDS011;28708;52.224;6.924;2022-10-26T04:15:54;18.67;;;11.73;;
43086;SDS011;28708;52.224;6.924;2022-10-26T04:18:19;17.50;;;11.97;;
43086;SDS011;28708;52.224;6.924;2022-10-26T04:20:45;16.57;;;11.90;;
43086;SDS011;28708;52.224;6.924;2022-10-26T04:23:11;22.27;;;13.33;;
43086;SDS011;28708;52.224;6.924;2022-10-26T04:25:40;18.23;;;12.02;;
43086;SDS011;28708;52.224;6.924;2022-10-26T04:28:07;23.13;;;11.37;;
43086;SDS011;28708;52.224;6.924;2022-10-26T04:30:33;15.43;;;11.13;;
43086;SDS011;28708;52.224;6.924;2022-10-26T04:33:00;22.90;;;12.77;;
43086;SDS011;28708;52.224;6.924;2022-10-26T04:35:26;16.77;;;11.63;;
43086;SDS011;28708;52.224;6.924;2022-10-26T04:38:02;18.87;;;10.30;;
43086;SDS011;28708;52.224;6.924;2022-10-26T04:40:30;16.50;;;11.13;;
43086;SDS011;28708;52.224;6.924;2022-10-26T04:42:56;17.57;;;10.47;;
43086;SDS011;28708;52.224;6.924;2022-10-26T04:45:22;20.30;;;12.20;;
43086;SDS011;28708;52.224;6.924;2022-10-26T04:47:57;18.23;;;11.40;;
43086;SDS011;28708;52.224;6.924;2022-10-26T04:50:34;16.70;;;11.30;;
43086;SDS011;28708;52.224;6.924;2022-10-26T04:53:01;19.97;;;11.47;;
43086;SDS011;28708;52.224;6.924;2022-10-26T04:55:34;18.20;;;11.27;;
43086;SDS011;28708;52.224;6.924;2022-10-26T04:58:00;16.57;;;10.30;;
43086;SDS011;28708;52.224;6.924;2022-10-26T05:00:25;16.93;;;11.57;;
43086;SDS011;28708;52.224;6.924;2022-10-26T05:02:51;14.97;;;10.50;;
43086;SDS011;28708;52.224;6.924;2022-10-26T05:05:22;16.33;;;10.27;;
43086;SDS011;28708;52.224;6.924;2022-10-26T05:07:54;17.43;;;10.97;;
43086;SDS011;28708;52.224;6.924;2022-10-26T05:10:20;19.03;;;11.40;;
43086;SDS011;28708;52.224;6.924;2022-10-26T05:12:56;19.07;;;10.83;;
43086;SDS011;28708;52.224;6.924;2022-10-26T05:15:24;18.70;;;10.60;;
43086;SDS011;28708;52.224;6.924;2022-10-26T05:17:54;21.13;;;11.57;;
43086;SDS011;28708;52.224;6.924;2022-10-26T05:20:24;16.63;;;9.27;;
43086;SDS011;28708;52.224;6.924;2022-10-26T05:22:55;16.97;;;9.27;;
43086;SDS011;28708;52.224;6.924;2022-10-26T05:25:21;17.40;;;11.10;;
43086;SDS011;28708;52.224;6.924;2022-10-26T05:27:48;15.50;;;9.83;;
43086;SDS011;28708;52.224;6.924;2022-10-26T05:30:13;15.67;;;10.70;;
43086;SDS011;28708;52.224;6.924;2022-10-26T05:32:39;14.27;;;9.80;;
43086;SDS011;28708;52.224;6.924;2022-10-26T05:35:05;18.60;;;10.67;;
43086;SDS011;28708;52.224;6.924;2022-10-26T05:37:30;22.43;;;10.17;;
43086;SDS011;28708;52.224;6.924;2022-10-26T05:39:56;13.37;;;8.47;;
43086;SDS011;28708;52.224;6.924;2022-10-26T05:42:22;13.23;;;9.53;;
43086;SDS011;28708;52.224;6.924;2022-10-26T05:44:49;13.13;;;8.43;;
43086;SDS011;28708;52.224;6.924;2022-10-26T05:47:15;17.80;;;10.43;;
43086;SDS011;28708;52.224;6.924;2022-10-26T05:49:40;20.13;;;9.87;;
43086;SDS011;28708;52.224;6.924;2022-10-26T05:52:06;17.07;;;9.53;;
43086;SDS011;28708;52.224;6.924;2022-10-26T05:54:31;20.10;;;9.40;;
43086;SDS011;28708;52.224;6.924;2022-10-26T05:56:57;15.17;;;9.50;;
43086;SDS011;28708;52.224;6.924;2022-10-26T05:59:23;15.70;;;9.20;;
43086;SDS011;28708;52.224;6.924;2022-10-26T06:04:48;15.10;;;10.48;;
43086;SDS011;28708;52.224;6.924;2022-10-26T06:07:15;15.30;;;9.73;;
43086;SDS011;28708;52.224;6.924;2022-10-26T06:09:44;15.57;;;10.05;;
43086;SDS011;28708;52.224;6.924;2022-10-26T06:12:10;19.60;;;9.80;;
43086;SDS011;28708;52.224;6.924;2022-10-26T06:14:37;15.87;;;8.57;;
43086;SDS011;28708;52.224;6.924;2022-10-26T06:22:59;16.92;;;10.02;;
43086;SDS011;28708;52.224;6.924;2022-10-26T06:30:44;16.87;;;10.53;;
43086;SDS011;28708;52.224;6.924;2022-10-26T06:33:11;21.13;;;9.37;;
43086;SDS011;28708;52.224;6.924;2022-10-26T06:35:44;22.60;;;11.60;;
43086;SDS011;28708;52.224;6.924;2022-10-26T06:38:20;21.40;;;10.00;;
43086;SDS011;28708;52.224;6.924;2022-10-26T06:40:48;19.17;;;10.47;;
43086;SDS011;28708;52.224;6.924;2022-10-26T06:43:19;17.03;;;10.83;;
43086;SDS011;28708;52.224;6.924;2022-10-26T06:46:15;23.40;;;10.27;;
43086;SDS011;28708;52.224;6.924;2022-10-26T06:48:55;18.63;;;10.03;;
43086;SDS011;28708;52.224;6.924;2022-10-26T06:51:40;16.57;;;9.60;;
43086;SDS011;28708;52.224;6.924;2022-10-26T06:56:54;14.00;;;9.00;;
43086;SDS011;28708;52.224;6.924;2022-10-26T06:59:24;14.63;;;9.40;;
43086;SDS011;28708;52.224;6.924;2022-10-26T07:02:11;20.17;;;10.17;;
43086;SDS011;28708;52.224;6.924;2022-10-26T07:04:38;15.37;;;9.37;;
43086;SDS011;28708;52.224;6.924;2022-10-26T07:07:05;15.17;;;9.90;;
43086;SDS011;28708;52.224;6.924;2022-10-26T07:09:30;13.97;;;9.17;;
43086;SDS011;28708;52.224;6.924;2022-10-26T07:11:56;18.17;;;11.10;;
43086;SDS011;28708;52.224;6.924;2022-10-26T07:14:21;17.87;;;9.47;;
43086;SDS011;28708;52.224;6.924;2022-10-26T07:16:47;15.90;;;9.33;;
43086;SDS011;28708;52.224;6.924;2022-10-26T07:19:13;19.57;;;9.67;;
43086;SDS011;28708;52.224;6.924;2022-10-26T07:21:38;21.07;;;8.67;;
43086;SDS011;28708;52.224;6.924;2022-10-26T07:24:04;14.20;;;8.53;;
43086;SDS011;28708;52.224;6.924;2022-10-26T07:26:30;15.07;;;8.50;;
43086;SDS011;28708;52.224;6.924;2022-10-26T07:28:55;15.50;;;8.73;;
43086;SDS011;28708;52.224;6.924;2022-10-26T07:31:21;18.57;;;10.37;;
43086;SDS011;28708;52.224;6.924;2022-10-26T07:33:46;19.33;;;10.40;;
43086;SDS011;28708;52.224;6.924;2022-10-26T07:36:12;23.40;;;10.40;;
43086;SDS011;28708;52.224;6.924;2022-10-26T07:38:38;15.80;;;8.87;;
43086;SDS011;28708;52.224;6.924;2022-10-26T07:41:03;18.77;;;9.70;;
43086;SDS011;28708;52.224;6.924;2022-10-26T07:43:29;13.70;;;7.90;;
43086;SDS011;28708;52.224;6.924;2022-10-26T07:45:55;15.07;;;7.90;;
43086;SDS011;28708;52.224;6.924;2022-10-26T07:48:21;9.87;;;6.80;;
43086;SDS011;28708;52.224;6.924;2022-10-26T07:50:46;10.37;;;6.50;;
43086;SDS011;28708;52.224;6.924;2022-10-26T07:53:13;15.40;;;7.30;;
43086;SDS011;28708;52.224;6.924;2022-10-26T07:55:38;14.83;;;6.63;;
43086;SDS011;28708;52.224;6.924;2022-10-26T07:58:04;13.27;;;7.57;;
43086;SDS011;28708;52.224;6.924;2022-10-26T08:00:29;12.17;;;6.63;;
43086;SDS011;28708;52.224;6.924;2022-10-26T08:02:55;22.63;;;11.07;;
43086;SDS011;28708;52.224;6.924;2022-10-26T08:05:21;15.63;;;6.13;;
43086;SDS011;28708;52.224;6.924;2022-10-26T08:07:47;13.20;;;7.27;;
43086;SDS011;28708;52.224;6.924;2022-10-26T08:10:13;11.03;;;6.13;;
43086;SDS011;28708;52.224;6.924;2022-10-26T08:12:39;14.83;;;8.80;;
43086;SDS011;28708;52.224;6.924;2022-10-26T08:15:06;14.23;;;6.67;;
43086;SDS011;28708;52.224;6.924;2022-10-26T08:17:33;11.03;;;6.40;;
43086;SDS011;28708;52.224;6.924;2022-10-26T08:19:58;10.10;;;5.90;;
43086;SDS011;28708;52.224;6.924;2022-10-26T08:22:24;12.27;;;7.00;;
43086;SDS011;28708;52.224;6.924;2022-10-26T08:24:50;9.70;;;5.97;;
43086;SDS011;28708;52.224;6.924;2022-10-26T08:27:15;14.47;;;7.23;;
43086;SDS011;28708;52.224;6.924;2022-10-26T08:29:41;10.60;;;5.70;;
43086;SDS011;28708;52.224;6.924;2022-10-26T08:32:07;12.50;;;5.53;;
43086;SDS011;28708;52.224;6.924;2022-10-26T08:34:33;13.83;;;6.30;;
43086;SDS011;28708;52.224;6.924;2022-10-26T08:36:59;10.40;;;5.53;;
43086;SDS011;28708;52.224;6.924;2022-10-26T08:39:24;9.40;;;5.37;;
43086;SDS011;28708;52.224;6.924;2022-10-26T08:41:55;11.03;;;5.70;;
43086;SDS011;28708;52.224;6.924;2022-10-26T08:44:30;9.80;;;5.10;;
43086;SDS011;28708;52.224;6.924;2022-10-26T08:47:08;16.90;;;5.37;;
43086;SDS011;28708;52.224;6.924;2022-10-26T08:49:42;8.40;;;4.90;;
43086;SDS011;28708;52.224;6.924;2022-10-26T08:52:16;8.47;;;4.90;;
43086;SDS011;28708;52.224;6.924;2022-10-26T08:54:50;9.47;;;4.40;;
43086;SDS011;28708;52.224;6.924;2022-10-26T08:57:23;11.30;;;4.77;;
43086;SDS011;28708;52.224;6.924;2022-10-26T09:00:05;9.40;;;4.07;;
43086;SDS011;28708;52.224;6.924;2022-10-26T09:02:35;15.07;;;4.40;;
43086;SDS011;28708;52.224;6.924;2022-10-26T09:05:01;15.93;;;5.50;;
43086;SDS011;28708;52.224;6.924;2022-10-26T09:07:39;8.77;;;3.83;;
43086;SDS011;28708;52.224;6.924;2022-10-26T09:13:15;7.63;;;3.77;;
43086;SDS011;28708;52.224;6.924;2022-10-26T09:18:42;7.50;;;3.00;;
43086;SDS011;28708;52.224;6.924;2022-10-26T09:26:49;7.23;;;3.00;;
43086;SDS011;28708;52.224;6.924;2022-10-26T09:29:25;7.63;;;3.13;;
43086;SDS011;28708;52.224;6.924;2022-10-26T09:31:55;6.07;;;2.47;;
43086;SDS011;28708;52.224;6.924;2022-10-26T09:34:38;6.13;;;2.47;;
43086;SDS011;28708;52.224;6.924;2022-10-26T09:37:36;7.70;;;2.20;;
43086;SDS011;28708;52.224;6.924;2022-10-26T09:43:00;10.27;;;2.60;;
43086;SDS011;28708;52.224;6.924;2022-10-26T09:45:34;6.55;;;2.90;;
43086;SDS011;28708;52.224;6.924;2022-10-26T09:50:47;7.78;;;2.05;;
43086;SDS011;28708;52.224;6.924;2022-10-26T09:53:15;5.47;;;1.70;;
43086;SDS011;28708;52.224;6.924;2022-10-26T09:55:44;6.47;;;1.70;;
43086;SDS011;28708;52.224;6.924;2022-10-26T09:58:46;6.65;;;2.15;;
43086;SDS011;28708;52.224;6.924;2022-10-26T10:01:26;5.28;;;1.80;;
43086;SDS011;28708;52.224;6.924;2022-10-26T10:06:40;6.30;;;2.55;;
43086;SDS011;28708;52.224;6.924;2022-10-26T10:09:17;6.25;;;2.00;;
43086;SDS011;28708;52.224;6.924;2022-10-26T10:14:19;7.18;;;2.28;;
43086;SDS011;28708;52.224;6.924;2022-10-26T10:16:53;4.82;;;1.80;;
43086;SDS011;28708;52.224;6.924;2022-10-26T10:19:27;11.30;;;2.30;;
43086;SDS011;28708;52.224;6.924;2022-10-26T10:21:58;4.72;;;2.25;;
43086;SDS011;28708;52.224;6.924;2022-10-26T10:24:31;5.18;;;1.98;;
43086;SDS011;28708;52.224;6.924;2022-10-26T10:29:27;11.50;;;2.42;;
43086;SDS011;28708;52.224;6.924;2022-10-26T10:31:59;8.00;;;2.10;;
43086;SDS011;28708;52.224;6.924;2022-10-26T10:34:26;7.53;;;2.45;;
43086;SDS011;28708;52.224;6.924;2022-10-26T10:36:54;7.15;;;2.20;;
43086;SDS011;28708;52.224;6.924;2022-10-26T10:42:13;10.55;;;2.80;;
43086;SDS011;28708;52.224;6.924;2022-10-26T10:44:45;6.07;;;2.08;;
43086;SDS011;28708;52.224;6.924;2022-10-26T10:47:56;6.35;;;2.17;;
43086;SDS011;28708;52.224;6.924;2022-10-26T10:50:21;7.80;;;2.50;;
43086;SDS011;28708;52.224;6.924;2022-10-26T10:52:47;7.97;;;2.00;;
43086;SDS011;28708;52.224;6.924;2022-10-26T10:57:44;8.35;;;2.65;;
43086;SDS011;28708;52.224;6.924;2022-10-26T11:00:43;7.55;;;2.83;;
43086;SDS011;28708;52.224;6.924;2022-10-26T11:03:14;5.85;;;2.30;;
43086;SDS011;28708;52.224;6.924;2022-10-26T11:11:06;6.43;;;2.00;;
43086;SDS011;28708;52.224;6.924;2022-10-26T11:13:42;10.38;;;2.50;;
43086;SDS011;28708;52.224;6.924;2022-10-26T11:16:25;13.63;;;2.95;;
43086;SDS011;28708;52.224;6.924;2022-10-26T11:19:06;8.80;;;3.00;;
43086;SDS011;28708;52.224;6.924;2022-10-26T11:21:52;7.40;;;2.83;;
43086;SDS011;28708;52.224;6.924;2022-10-26T11:24:21;8.23;;;2.75;;
43086;SDS011;28708;52.224;6.924;2022-10-26T11:27:20;10.23;;;2.70;;
43086;SDS011;28708;52.224;6.924;2022-10-26T11:30:02;7.25;;;2.60;;
43086;SDS011;28708;52.224;6.924;2022-10-26T11:32:37;6.60;;;2.55;;
43086;SDS011;28708;52.224;6.924;2022-10-26T11:35:43;12.63;;;2.70;;
43086;SDS011;28708;52.224;6.924;2022-10-26T11:38:28;7.55;;;2.45;;
43086;SDS011;28708;52.224;6.924;2022-10-26T11:43:46;6.60;;;2.38;;
43086;SDS011;28708;52.224;6.924;2022-10-26T11:46:24;7.03;;;2.50;;
43086;SDS011;28708;52.224;6.924;2022-10-26T11:49:28;6.10;;;2.73;;
43086;SDS011;28708;52.224;6.924;2022-10-26T11:52:18;7.20;;;2.27;;
43086;SDS011;28708;52.224;6.924;2022-10-26T11:55:00;5.90;;;2.23;;
43086;SDS011;28708;52.224;6.924;2022-10-26T11:57:29;7.43;;;2.27;;
43086;SDS011;28708;52.224;6.924;2022-10-26T12:00:00;7.97;;;2.37;;
43086;SDS011;28708;52.224;6.924;2022-10-26T12:02:29;7.60;;;2.40;;
43086;SDS011;28708;52.224;6.924;2022-10-26T12:05:02;6.50;;;2.40;;
43086;SDS011;28708;52.224;6.924;2022-10-26T12:07:32;10.03;;;2.80;;
43086;SDS011;28708;52.224;6.924;2022-10-26T12:17:57;6.37;;;2.90;;
43086;SDS011;28708;52.224;6.924;2022-10-26T12:20:47;9.43;;;3.20;;
43086;SDS011;28708;52.224;6.924;2022-10-26T12:23:27;7.13;;;3.00;;
43086;SDS011;28708;52.224;6.924;2022-10-26T12:34:21;6.97;;;3.10;;
43086;SDS011;28708;52.224;6.924;2022-10-26T12:39:33;9.10;;;3.40;;
43086;SDS011;28708;52.224;6.924;2022-10-26T12:44:33;11.23;;;2.80;;
43086;SDS011;28708;52.224;6.924;2022-10-26T12:46:59;8.53;;;3.00;;
43086;SDS011;28708;52.224;6.924;2022-10-26T12:52:27;10.60;;;3.60;;
43086;SDS011;28708;52.224;6.924;2022-10-26T13:00:21;7.20;;;3.40;;
43086;SDS011;28708;52.224;6.924;2022-10-26T13:05:49;14.00;;;4.07;;
43086;SDS011;28708;52.224;6.924;2022-10-26T13:08:22;7.57;;;3.83;;
43086;SDS011;28708;52.224;6.924;2022-10-26T13:11:04;8.73;;;3.70;;
43086;SDS011;28708;52.224;6.924;2022-10-26T13:13:37;11.07;;;3.87;;
43086;SDS011;28708;52.224;6.924;2022-10-26T13:16:04;7.90;;;3.33;;
43086;SDS011;28708;52.224;6.924;2022-10-26T13:18:39;9.87;;;3.70;;
43086;SDS011;28708;52.224;6.924;2022-10-26T13:23:40;11.30;;;4.07;;
43086;SDS011;28708;52.224;6.924;2022-10-26T13:26:12;10.53;;;3.23;;
43086;SDS011;28708;52.224;6.924;2022-10-26T13:28:44;11.27;;;4.07;;
43086;SDS011;28708;52.224;6.924;2022-10-26T13:34:09;11.43;;;4.00;;
43086;SDS011;28708;52.224;6.924;2022-10-26T13:39:39;9.37;;;3.63;;
43086;SDS011;28708;52.224;6.924;2022-10-26T13:42:11;8.30;;;3.40;;
43086;SDS011;28708;52.224;6.924;2022-10-26T13:44:46;10.07;;;4.00;;
43086;SDS011;28708;52.224;6.924;2022-10-26T13:47:18;10.67;;;4.20;;
43086;SDS011;28708;52.224;6.924;2022-10-26T13:49:53;13.63;;;3.77;;
43086;SDS011;28708;52.224;6.924;2022-10-26T13:52:34;8.47;;;3.63;;
43086;SDS011;28708;52.224;6.924;2022-10-26T13:55:09;8.27;;;3.50;;
43086;SDS011;28708;52.224;6.924;2022-10-26T13:57:47;9.45;;;3.60;;
43086;SDS011;28708;52.224;6.924;2022-10-26T14:00:27;11.57;;;3.50;;
43086;SDS011;28708;52.224;6.924;2022-10-26T14:02:53;9.63;;;3.47;;
43086;SDS011;28708;52.224;6.924;2022-10-26T14:05:19;7.40;;;3.37;;
43086;SDS011;28708;52.224;6.924;2022-10-26T14:07:58;9.30;;;3.70;;
43086;SDS011;28708;52.224;6.924;2022-10-26T14:13:05;9.30;;;3.20;;
43086;SDS011;28708;52.224;6.924;2022-10-26T14:15:32;9.93;;;3.40;;
43086;SDS011;28708;52.224;6.924;2022-10-26T14:17:59;8.07;;;3.03;;
43086;SDS011;28708;52.224;6.924;2022-10-26T14:20:27;9.07;;;3.37;;
43086;SDS011;28708;52.224;6.924;2022-10-26T14:22:55;9.70;;;3.40;;
43086;SDS011;28708;52.224;6.924;2022-10-26T14:25:22;8.77;;;3.60;;
43086;SDS011;28708;52.224;6.924;2022-10-26T14:27:48;7.03;;;3.20;;
43086;SDS011;28708;52.224;6.924;2022-10-26T14:30:25;9.30;;;3.20;;
43086;SDS011;28708;52.224;6.924;2022-10-26T14:32:53;8.23;;;3.00;;
43086;SDS011;28708;52.224;6.924;2022-10-26T14:35:31;7.17;;;2.87;;
43086;SDS011;28708;52.224;6.924;2022-10-26T14:38:02;9.20;;;3.17;;
43086;SDS011;28708;52.224;6.924;2022-10-26T14:40:56;7.57;;;2.80;;
43086;SDS011;28708;52.224;6.924;2022-10-26T14:43:22;10.60;;;3.00;;
43086;SDS011;28708;52.224;6.924;2022-10-26T14:45:50;10.47;;;3.37;;
43086;SDS011;28708;52.224;6.924;2022-10-26T14:48:24;8.00;;;2.93;;
43086;SDS011;28708;52.224;6.924;2022-10-26T14:50:58;6.67;;;2.40;;
43086;SDS011;28708;52.224;6.924;2022-10-26T14:53:37;8.03;;;3.03;;
43086;SDS011;28708;52.224;6.924;2022-10-26T14:56:04;10.00;;;3.23;;
43086;SDS011;28708;52.224;6.924;2022-10-26T14:58:42;7.87;;;2.97;;
43086;SDS011;28708;52.224;6.924;2022-10-26T15:01:14;11.43;;;3.13;;
43086;SDS011;28708;52.224;6.924;2022-10-26T15:06:51;9.40;;;2.90;;
43086;SDS011;28708;52.224;6.924;2022-10-26T15:09:30;7.37;;;2.73;;
43086;SDS011;28708;52.224;6.924;2022-10-26T15:12:01;8.93;;;3.97;;
43086;SDS011;28708;52.224;6.924;2022-10-26T15:14:28;8.37;;;2.77;;
43086;SDS011;28708;52.224;6.924;2022-10-26T15:16:55;9.13;;;3.10;;
43086;SDS011;28708;52.224;6.924;2022-10-26T15:19:22;7.73;;;2.40;;
43086;SDS011;28708;52.224;6.924;2022-10-26T15:21:51;7.30;;;2.73;;
43086;SDS011;28708;52.224;6.924;2022-10-26T15:27:02;9.53;;;2.70;;
43086;SDS011;28708;52.224;6.924;2022-10-26T15:29:36;6.77;;;2.60;;
43086;SDS011;28708;52.224;6.924;2022-10-26T15:32:03;8.83;;;2.80;;
43086;SDS011;28708;52.224;6.924;2022-10-26T15:34:40;9.57;;;2.87;;
43086;SDS011;28708;52.224;6.924;2022-10-26T15:37:06;8.57;;;3.17;;
43086;SDS011;28708;52.224;6.924;2022-10-26T15:39:32;7.30;;;2.97;;
43086;SDS011;28708;52.224;6.924;2022-10-26T15:41:57;6.50;;;3.07;;
43086;SDS011;28708;52.224;6.924;2022-10-26T15:44:24;14.23;;;2.93;;
43086;SDS011;28708;52.224;6.924;2022-10-26T15:46:49;10.50;;;3.83;;
43086;SDS011;28708;52.224;6.924;2022-10-26T15:49:16;8.60;;;3.40;;
43086;SDS011;28708;52.224;6.924;2022-10-26T15:51:44;10.23;;;3.50;;
43086;SDS011;28708;52.224;6.924;2022-10-26T15:54:11;9.57;;;3.30;;
43086;SDS011;28708;52.224;6.924;2022-10-26T15:56:37;9.17;;;3.17;;
43086;SDS011;28708;52.224;6.924;2022-10-26T15:59:14;7.50;;;3.07;;
43086;SDS011;28708;52.224;6.924;2022-10-26T16:01:42;9.40;;;3.27;;
43086;SDS011;28708;52.224;6.924;2022-10-26T16:04:08;9.67;;;4.43;;
43086;SDS011;28708;52.224;6.924;2022-10-26T16:06:36;8.47;;;4.20;;
43086;SDS011;28708;52.224;6.924;2022-10-26T16:09:04;9.67;;;4.63;;
43086;SDS011;28708;52.224;6.924;2022-10-26T16:11:31;9.07;;;4.27;;
43086;SDS011;28708;52.224;6.924;2022-10-26T16:13:57;9.87;;;3.90;;
43086;SDS011;28708;52.224;6.924;2022-10-26T16:16:23;10.07;;;3.80;;
43086;SDS011;28708;52.224;6.924;2022-10-26T16:18:53;10.30;;;4.13;;
43086;SDS011;28708;52.224;6.924;2022-10-26T16:21:20;7.20;;;4.17;;
43086;SDS011;28708;52.224;6.924;2022-10-26T16:23:48;7.90;;;3.37;;
43086;SDS011;28708;52.224;6.924;2022-10-26T16:26:16;8.07;;;3.17;;
43086;SDS011;28708;52.224;6.924;2022-10-26T16:28:42;9.40;;;3.90;;
43086;SDS011;28708;52.224;6.924;2022-10-26T16:31:12;8.30;;;4.00;;
43086;SDS011;28708;52.224;6.924;2022-10-26T16:33:39;10.97;;;3.73;;
43086;SDS011;28708;52.224;6.924;2022-10-26T16:36:05;8.80;;;3.77;;
43086;SDS011;28708;52.224;6.924;2022-10-26T16:38:32;7.87;;;4.00;;
43086;SDS011;28708;52.224;6.924;2022-10-26T16:41:01;8.00;;;4.10;;
43086;SDS011;28708;52.224;6.924;2022-10-26T16:43:32;12.43;;;4.90;;
43086;SDS011;28708;52.224;6.924;2022-10-26T16:48:32;7.43;;;3.40;;
43086;SDS011;28708;52.224;6.924;2022-10-26T16:51:03;9.83;;;4.20;;
43086;SDS011;28708;52.224;6.924;2022-10-26T16:53:30;8.50;;;3.97;;
43086;SDS011;28708;52.224;6.924;2022-10-26T16:56:00;9.13;;;3.87;;
43086;SDS011;28708;52.224;6.924;2022-10-26T16:58:36;8.20;;;4.10;;
43086;SDS011;28708;52.224;6.924;2022-10-26T17:01:03;8.70;;;4.20;;
43086;SDS011;28708;52.224;6.924;2022-10-26T17:03:29;9.97;;;4.37;;
43086;SDS011;28708;52.224;6.924;2022-10-26T17:05:59;9.23;;;4.80;;
43086;SDS011;28708;52.224;6.924;2022-10-26T17:08:26;11.47;;;5.63;;
43086;SDS011;28708;52.224;6.924;2022-10-26T17:10:53;9.57;;;4.40;;